sensor_id;sensor_type;location;lat;lon;timestamp;P1;durP1;ratioP1;P2;durP2;ratioP2
21168;SDS011;10742;51.816;8.662;2023-05-10T00:00:46;1999.90;;;999.90;;
21168;SDS011;10742;51.816;8.662;2023-05-10T00:03:49;1999.90;;;999.90;;
21168;SDS011;10742;51.816;8.662;2023-05-10T00:06:51;1999.90;;;999.90;;
21168;SDS011;10742;51.816;8.662;2023-05-10T00:09:53;1999.90;;;999.90;;
21168;SDS011;10742;51.816;8.662;2023-05-10T00:12:56;1999.90;;;999.90;;
21168;SDS011;10742;51.816;8.662;2023-05-10T00:15:58;1999.90;;;999.90;;
21168;SDS011;10742;51.816;8.662;2023-05-10T00:19:01;1999.90;;;999.90;;
21168;SDS011;10742;51.816;8.662;2023-05-10T00:22:03;1999.90;;;999.90;;
21168;SDS011;10742;51.816;8.662;2023-05-10T00:25:05;1999.90;;;999.90;;
21168;SDS011;10742;51.816;8.662;2023-05-10T00:28:08;1999.90;;;999.90;;
21168;SDS011;10742;51.816;8.662;2023-05-10T00:31:11;1999.90;;;999.90;;
21168;SDS011;10742;51.816;8.662;2023-05-10T00:34:14;1999.90;;;999.90;;
21168;SDS011;10742;51.816;8.662;2023-05-10T00:37:17;1999.90;;;999.90;;
21168;SDS011;10742;51.816;8.662;2023-05-10T00:40:19;1999.90;;;999.90;;
21168;SDS011;10742;51.816;8.662;2023-05-10T00:43:26;1999.90;;;999.90;;
21168;SDS011;10742;51.816;8.662;2023-05-10T00:46:28;1999.90;;;999.90;;
21168;SDS011;10742;51.816;8.662;2023-05-10T00:49:31;1999.90;;;999.90;;
21168;SDS011;10742;51.816;8.662;2023-05-10T00:52:34;1999.90;;;999.90;;
21168;SDS011;10742;51.816;8.662;2023-05-10T00:55:36;1999.90;;;999.90;;
21168;SDS011;10742;51.816;8.662;2023-05-10T00:58:39;1999.90;;;999.90;;
21168;SDS011;10742;51.816;8.662;2023-05-10T01:01:42;1999.90;;;999.90;;
21168;SDS011;10742;51.816;8.662;2023-05-10T01:04:45;1999.90;;;999.90;;
21168;SDS011;10742;51.816;8.662;2023-05-10T01:07:48;1999.90;;;999.90;;
21168;SDS011;10742;51.816;8.662;2023-05-10T01:10:50;1999.90;;;999.90;;
21168;SDS011;10742;51.816;8.662;2023-05-10T01:13:55;1999.90;;;999.90;;
21168;SDS011;10742;51.816;8.662;2023-05-10T01:16:58;1999.90;;;999.90;;
21168;SDS011;10742;51.816;8.662;2023-05-10T01:20:02;1999.90;;;999.90;;
21168;SDS011;10742;51.816;8.662;2023-05-10T01:33:29;1999.90;;;999.90;;
21168;SDS011;10742;51.816;8.662;2023-05-10T01:36:40;1999.90;;;999.90;;
21168;SDS011;10742;51.816;8.662;2023-05-10T01:39:49;1999.90;;;999.90;;
21168;SDS011;10742;51.816;8.662;2023-05-10T01:43:00;1999.90;;;999.90;;
21168;SDS011;10742;51.816;8.662;2023-05-10T01:46:08;1999.90;;;999.90;;
21168;SDS011;10742;51.816;8.662;2023-05-10T01:49:25;1999.90;;;999.90;;
21168;SDS011;10742;51.816;8.662;2023-05-10T01:52:32;1999.90;;;999.90;;
21168;SDS011;10742;51.816;8.662;2023-05-10T01:55:41;1999.90;;;999.90;;
21168;SDS011;10742;51.816;8.662;2023-05-10T01:58:48;1999.90;;;999.90;;
21168;SDS011;10742;51.816;8.662;2023-05-10T02:01:52;1999.90;;;999.90;;
21168;SDS011;10742;51.816;8.662;2023-05-10T02:04:57;1999.90;;;999.90;;
21168;SDS011;10742;51.816;8.662;2023-05-10T02:08:01;1999.90;;;999.90;;
21168;SDS011;10742;51.816;8.662;2023-05-10T02:11:06;1999.90;;;999.90;;
21168;SDS011;10742;51.816;8.662;2023-05-10T02:14:12;1999.90;;;999.90;;
21168;SDS011;10742;51.816;8.662;2023-05-10T02:17:15;1999.90;;;999.90;;
21168;SDS011;10742;51.816;8.662;2023-05-10T02:20:19;1999.90;;;999.90;;
21168;SDS011;10742;51.816;8.662;2023-05-10T02:23:23;1999.90;;;999.90;;
21168;SDS011;10742;51.816;8.662;2023-05-10T02:26:27;1999.90;;;999.90;;
21168;SDS011;10742;51.816;8.662;2023-05-10T02:29:31;1999.90;;;999.90;;
21168;SDS011;10742;51.816;8.662;2023-05-10T02:32:34;1999.90;;;999.90;;
21168;SDS011;10742;51.816;8.662;2023-05-10T02:35:38;1999.90;;;999.90;;
21168;SDS011;10742;51.816;8.662;2023-05-10T02:38:43;1999.90;;;999.90;;
21168;SDS011;10742;51.816;8.662;2023-05-10T02:41:48;1999.90;;;999.90;;
21168;SDS011;10742;51.816;8.662;2023-05-10T02:44:52;1999.90;;;999.90;;
21168;SDS011;10742;51.816;8.662;2023-05-10T02:47:58;1999.90;;;999.90;;
21168;SDS011;10742;51.816;8.662;2023-05-10T02:51:04;1999.90;;;999.90;;
21168;SDS011;10742;51.816;8.662;2023-05-10T02:54:12;1999.90;;;999.90;;
21168;SDS011;10742;51.816;8.662;2023-05-10T02:57:22;1999.90;;;999.90;;
21168;SDS011;10742;51.816;8.662;2023-05-10T03:00:31;1999.90;;;999.90;;
21168;SDS011;10742;51.816;8.662;2023-05-10T03:03:34;1999.90;;;999.90;;
21168;SDS011;10742;51.816;8.662;2023-05-10T03:06:36;1999.90;;;999.90;;
21168;SDS011;10742;51.816;8.662;2023-05-10T03:09:39;1999.90;;;999.90;;
21168;SDS011;10742;51.816;8.662;2023-05-10T03:13:01;1999.90;;;999.90;;
21168;SDS011;10742;51.816;8.662;2023-05-10T03:16:14;1999.90;;;999.90;;
21168;SDS011;10742;51.816;8.662;2023-05-10T03:19:30;1999.90;;;999.90;;
21168;SDS011;10742;51.816;8.662;2023-05-10T03:22:40;1999.90;;;999.90;;
21168;SDS011;10742;51.816;8.662;2023-05-10T03:25:47;1999.90;;;999.90;;
21168;SDS011;10742;51.816;8.662;2023-05-10T03:28:52;1999.90;;;999.90;;
21168;SDS011;10742;51.816;8.662;2023-05-10T03:31:55;1999.90;;;999.90;;
21168;SDS011;10742;51.816;8.662;2023-05-10T03:34:57;1999.90;;;999.90;;
21168;SDS011;10742;51.816;8.662;2023-05-10T03:38:00;1999.90;;;999.90;;
21168;SDS011;10742;51.816;8.662;2023-05-10T03:41:03;1999.90;;;999.90;;
21168;SDS011;10742;51.816;8.662;2023-05-10T03:44:06;1999.90;;;999.90;;
21168;SDS011;10742;51.816;8.662;2023-05-10T03:47:09;1999.90;;;999.90;;
21168;SDS011;10742;51.816;8.662;2023-05-10T03:50:11;1999.90;;;999.90;;
21168;SDS011;10742;51.816;8.662;2023-05-10T03:53:13;1999.90;;;999.90;;
21168;SDS011;10742;51.816;8.662;2023-05-10T03:56:16;1999.90;;;999.90;;
21168;SDS011;10742;51.816;8.662;2023-05-10T03:59:19;1999.90;;;999.90;;
21168;SDS011;10742;51.816;8.662;2023-05-10T04:02:21;1999.90;;;999.90;;
21168;SDS011;10742;51.816;8.662;2023-05-10T04:05:24;1999.90;;;999.90;;
21168;SDS011;10742;51.816;8.662;2023-05-10T04:08:27;1999.90;;;999.90;;
21168;SDS011;10742;51.816;8.662;2023-05-10T04:11:31;1999.90;;;999.90;;
21168;SDS011;10742;51.816;8.662;2023-05-10T04:14:33;1999.90;;;999.90;;
21168;SDS011;10742;51.816;8.662;2023-05-10T04:17:35;1999.90;;;999.90;;
21168;SDS011;10742;51.816;8.662;2023-05-10T04:20:37;1999.90;;;999.90;;
21168;SDS011;10742;51.816;8.662;2023-05-10T04:23:40;1999.90;;;999.90;;
21168;SDS011;10742;51.816;8.662;2023-05-10T04:26:42;1999.90;;;999.90;;
21168;SDS011;10742;51.816;8.662;2023-05-10T04:29:44;1999.90;;;999.90;;
21168;SDS011;10742;51.816;8.662;2023-05-10T04:32:47;1999.90;;;999.90;;
21168;SDS011;10742;51.816;8.662;2023-05-10T04:35:49;1999.90;;;999.90;;
21168;SDS011;10742;51.816;8.662;2023-05-10T04:38:51;1999.90;;;999.90;;
21168;SDS011;10742;51.816;8.662;2023-05-10T04:41:54;1999.90;;;999.90;;
21168;SDS011;10742;51.816;8.662;2023-05-10T04:44:56;1999.90;;;999.90;;
21168;SDS011;10742;51.816;8.662;2023-05-10T04:47:59;1999.90;;;999.90;;
21168;SDS011;10742;51.816;8.662;2023-05-10T04:51:01;1999.90;;;999.90;;
21168;SDS011;10742;51.816;8.662;2023-05-10T04:54:05;1999.90;;;999.90;;
21168;SDS011;10742;51.816;8.662;2023-05-10T04:57:07;1999.90;;;999.90;;
21168;SDS011;10742;51.816;8.662;2023-05-10T05:00:10;1999.90;;;999.90;;
21168;SDS011;10742;51.816;8.662;2023-05-10T05:03:13;1999.90;;;999.90;;
21168;SDS011;10742;51.816;8.662;2023-05-10T05:06:15;1999.90;;;999.90;;
21168;SDS011;10742;51.816;8.662;2023-05-10T05:09:17;1999.90;;;999.90;;
21168;SDS011;10742;51.816;8.662;2023-05-10T05:12:19;1999.90;;;999.90;;
21168;SDS011;10742;51.816;8.662;2023-05-10T05:15:22;1999.90;;;999.90;;
21168;SDS011;10742;51.816;8.662;2023-05-10T05:18:24;1999.90;;;999.90;;
21168;SDS011;10742;51.816;8.662;2023-05-10T05:21:26;1999.90;;;999.90;;
21168;SDS011;10742;51.816;8.662;2023-05-10T05:24:29;1999.90;;;999.90;;
21168;SDS011;10742;51.816;8.662;2023-05-10T05:27:36;1999.90;;;999.90;;
21168;SDS011;10742;51.816;8.662;2023-05-10T05:30:38;1999.90;;;999.90;;
21168;SDS011;10742;51.816;8.662;2023-05-10T05:33:41;1999.90;;;999.90;;
21168;SDS011;10742;51.816;8.662;2023-05-10T05:36:43;1999.90;;;999.90;;
21168;SDS011;10742;51.816;8.662;2023-05-10T05:39:45;1999.90;;;999.90;;
21168;SDS011;10742;51.816;8.662;2023-05-10T05:42:48;1999.90;;;999.90;;
21168;SDS011;10742;51.816;8.662;2023-05-10T05:45:51;1999.90;;;999.90;;
21168;SDS011;10742;51.816;8.662;2023-05-10T05:48:55;1999.90;;;999.90;;
21168;SDS011;10742;51.816;8.662;2023-05-10T05:52:01;1999.90;;;999.90;;
21168;SDS011;10742;51.816;8.662;2023-05-10T05:55:04;1999.90;;;999.90;;
21168;SDS011;10742;51.816;8.662;2023-05-10T05:58:06;1999.90;;;999.90;;
21168;SDS011;10742;51.816;8.662;2023-05-10T06:01:09;1999.90;;;999.90;;
21168;SDS011;10742;51.816;8.662;2023-05-10T06:04:11;1999.90;;;999.90;;
21168;SDS011;10742;51.816;8.662;2023-05-10T06:07:14;1999.90;;;999.90;;
21168;SDS011;10742;51.816;8.662;2023-05-10T06:10:16;1999.90;;;999.90;;
21168;SDS011;10742;51.816;8.662;2023-05-10T06:13:18;1999.90;;;999.90;;
21168;SDS011;10742;51.816;8.662;2023-05-10T06:16:21;1999.90;;;999.90;;
21168;SDS011;10742;51.816;8.662;2023-05-10T06:19:24;1999.90;;;999.90;;
21168;SDS011;10742;51.816;8.662;2023-05-10T06:22:26;1999.90;;;999.90;;
21168;SDS011;10742;51.816;8.662;2023-05-10T06:25:28;1999.90;;;999.90;;
21168;SDS011;10742;51.816;8.662;2023-05-10T06:28:31;1999.90;;;999.90;;
21168;SDS011;10742;51.816;8.662;2023-05-10T06:31:33;1999.90;;;999.90;;
21168;SDS011;10742;51.816;8.662;2023-05-10T06:34:36;1999.90;;;999.90;;
21168;SDS011;10742;51.816;8.662;2023-05-10T06:37:38;1999.90;;;999.90;;
21168;SDS011;10742;51.816;8.662;2023-05-10T06:40:41;1999.90;;;999.90;;
21168;SDS011;10742;51.816;8.662;2023-05-10T06:43:44;1999.90;;;999.90;;
21168;SDS011;10742;51.816;8.662;2023-05-10T06:46:46;1999.90;;;999.90;;
21168;SDS011;10742;51.816;8.662;2023-05-10T06:49:48;1999.90;;;999.90;;
21168;SDS011;10742;51.816;8.662;2023-05-10T06:52:51;1999.90;;;999.90;;
21168;SDS011;10742;51.816;8.662;2023-05-10T06:55:53;1999.90;;;999.90;;
21168;SDS011;10742;51.816;8.662;2023-05-10T06:58:56;1999.90;;;999.90;;
21168;SDS011;10742;51.816;8.662;2023-05-10T07:01:58;1999.90;;;999.90;;
21168;SDS011;10742;51.816;8.662;2023-05-10T07:05:01;1999.90;;;999.90;;
21168;SDS011;10742;51.816;8.662;2023-05-10T07:08:04;1999.90;;;999.90;;
21168;SDS011;10742;51.816;8.662;2023-05-10T07:11:06;1999.90;;;999.90;;
21168;SDS011;10742;51.816;8.662;2023-05-10T07:14:27;1999.90;;;999.90;;
21168;SDS011;10742;51.816;8.662;2023-05-10T07:17:48;1999.90;;;999.90;;
21168;SDS011;10742;51.816;8.662;2023-05-10T07:20:51;1999.90;;;999.90;;
21168;SDS011;10742;51.816;8.662;2023-05-10T07:23:54;1999.90;;;999.90;;
21168;SDS011;10742;51.816;8.662;2023-05-10T07:26:56;1999.90;;;999.90;;
21168;SDS011;10742;51.816;8.662;2023-05-10T07:29:58;1999.90;;;999.90;;
21168;SDS011;10742;51.816;8.662;2023-05-10T07:33:02;1999.90;;;999.90;;
21168;SDS011;10742;51.816;8.662;2023-05-10T07:36:04;1999.90;;;999.90;;
21168;SDS011;10742;51.816;8.662;2023-05-10T07:39:06;1999.90;;;999.90;;
21168;SDS011;10742;51.816;8.662;2023-05-10T07:42:09;1999.90;;;999.90;;
21168;SDS011;10742;51.816;8.662;2023-05-10T07:45:11;1999.90;;;999.90;;
21168;SDS011;10742;51.816;8.662;2023-05-10T07:48:13;1999.90;;;999.90;;
21168;SDS011;10742;51.816;8.662;2023-05-10T07:51:16;1999.90;;;999.90;;
21168;SDS011;10742;51.816;8.662;2023-05-10T07:54:18;1999.90;;;999.90;;
21168;SDS011;10742;51.816;8.662;2023-05-10T07:57:21;1999.90;;;999.90;;
21168;SDS011;10742;51.816;8.662;2023-05-10T08:00:23;1999.90;;;999.90;;
21168;SDS011;10742;51.816;8.662;2023-05-10T08:03:25;1999.90;;;999.90;;
21168;SDS011;10742;51.816;8.662;2023-05-10T08:06:27;1999.90;;;999.90;;
21168;SDS011;10742;51.816;8.662;2023-05-10T08:09:31;1999.90;;;999.90;;
21168;SDS011;10742;51.816;8.662;2023-05-10T08:12:33;1999.90;;;996.23;;
21168;SDS011;10742;51.816;8.662;2023-05-10T08:15:35;1999.90;;;926.57;;
21168;SDS011;10742;51.816;8.662;2023-05-10T08:18:38;1999.90;;;947.90;;
21168;SDS011;10742;51.816;8.662;2023-05-10T08:21:40;1999.90;;;893.40;;
21168;SDS011;10742;51.816;8.662;2023-05-10T08:24:44;1999.90;;;899.27;;
21168;SDS011;10742;51.816;8.662;2023-05-10T08:27:46;1999.90;;;870.90;;
21168;SDS011;10742;51.816;8.662;2023-05-10T08:30:49;1999.90;;;962.73;;
21168;SDS011;10742;51.816;8.662;2023-05-10T08:33:52;1999.90;;;966.17;;
21168;SDS011;10742;51.816;8.662;2023-05-10T08:36:54;1999.90;;;911.07;;
21168;SDS011;10742;51.816;8.662;2023-05-10T08:39:56;1999.90;;;874.47;;
21168;SDS011;10742;51.816;8.662;2023-05-10T08:43:01;1999.90;;;892.53;;
21168;SDS011;10742;51.816;8.662;2023-05-10T08:46:08;1999.90;;;923.60;;
21168;SDS011;10742;51.816;8.662;2023-05-10T08:49:16;1999.90;;;939.70;;
21168;SDS011;10742;51.816;8.662;2023-05-10T08:52:21;1999.90;;;982.53;;
21168;SDS011;10742;51.816;8.662;2023-05-10T08:55:25;1999.90;;;994.23;;
21168;SDS011;10742;51.816;8.662;2023-05-10T08:58:28;1999.90;;;854.37;;
21168;SDS011;10742;51.816;8.662;2023-05-10T09:01:31;1999.90;;;839.77;;
21168;SDS011;10742;51.816;8.662;2023-05-10T09:04:34;1999.90;;;850.37;;
21168;SDS011;10742;51.816;8.662;2023-05-10T09:07:36;1999.90;;;925.70;;
21168;SDS011;10742;51.816;8.662;2023-05-10T09:10:39;1999.90;;;999.90;;
21168;SDS011;10742;51.816;8.662;2023-05-10T09:13:43;1999.90;;;999.90;;
21168;SDS011;10742;51.816;8.662;2023-05-10T09:16:46;1999.90;;;999.90;;
21168;SDS011;10742;51.816;8.662;2023-05-10T09:19:49;1999.90;;;990.87;;
21168;SDS011;10742;51.816;8.662;2023-05-10T09:22:51;1999.90;;;999.90;;
21168;SDS011;10742;51.816;8.662;2023-05-10T09:26:06;1999.90;;;843.60;;
21168;SDS011;10742;51.816;8.662;2023-05-10T09:29:09;1999.90;;;951.87;;
21168;SDS011;10742;51.816;8.662;2023-05-10T09:32:11;1999.90;;;927.50;;
21168;SDS011;10742;51.816;8.662;2023-05-10T09:35:15;1999.90;;;779.10;;
21168;SDS011;10742;51.816;8.662;2023-05-10T09:38:20;1999.90;;;818.20;;
21168;SDS011;10742;51.816;8.662;2023-05-10T09:41:22;1999.90;;;788.17;;
21168;SDS011;10742;51.816;8.662;2023-05-10T09:44:25;1999.90;;;685.70;;
21168;SDS011;10742;51.816;8.662;2023-05-10T09:47:28;1999.90;;;549.67;;
21168;SDS011;10742;51.816;8.662;2023-05-10T09:50:30;1999.90;;;501.57;;
21168;SDS011;10742;51.816;8.662;2023-05-10T09:53:32;1376.93;;;352.67;;
21168;SDS011;10742;51.816;8.662;2023-05-10T09:56:35;1070.87;;;291.33;;
21168;SDS011;10742;51.816;8.662;2023-05-10T09:59:42;567.93;;;176.53;;
21168;SDS011;10742;51.816;8.662;2023-05-10T10:02:45;440.60;;;143.13;;
21168;SDS011;10742;51.816;8.662;2023-05-10T10:05:49;504.15;;;156.68;;
21168;SDS011;10742;51.816;8.662;2023-05-10T10:08:51;132.37;;;56.13;;
21168;SDS011;10742;51.816;8.662;2023-05-10T10:11:57;71.93;;;32.72;;
21168;SDS011;10742;51.816;8.662;2023-05-10T10:15:00;51.50;;;30.25;;
21168;SDS011;10742;51.816;8.662;2023-05-10T10:18:03;36.38;;;18.40;;
21168;SDS011;10742;51.816;8.662;2023-05-10T10:21:07;32.28;;;19.67;;
21168;SDS011;10742;51.816;8.662;2023-05-10T10:24:10;27.60;;;16.08;;
21168;SDS011;10742;51.816;8.662;2023-05-10T10:27:15;27.33;;;16.30;;
21168;SDS011;10742;51.816;8.662;2023-05-10T10:30:39;21.85;;;13.05;;
21168;SDS011;10742;51.816;8.662;2023-05-10T10:36:49;19.55;;;10.50;;
21168;SDS011;10742;51.816;8.662;2023-05-10T10:39:51;17.42;;;9.77;;
21168;SDS011;10742;51.816;8.662;2023-05-10T10:42:57;22.70;;;11.02;;
21168;SDS011;10742;51.816;8.662;2023-05-10T10:46:15;18.35;;;10.05;;
21168;SDS011;10742;51.816;8.662;2023-05-10T10:49:19;20.00;;;10.18;;
21168;SDS011;10742;51.816;8.662;2023-05-10T10:55:30;18.83;;;9.95;;
21168;SDS011;10742;51.816;8.662;2023-05-10T10:58:34;19.15;;;8.75;;
21168;SDS011;10742;51.816;8.662;2023-05-10T11:01:37;19.85;;;9.05;;
21168;SDS011;10742;51.816;8.662;2023-05-10T11:04:46;18.88;;;9.38;;
21168;SDS011;10742;51.816;8.662;2023-05-10T11:07:55;16.67;;;8.32;;
21168;SDS011;10742;51.816;8.662;2023-05-10T11:14:04;18.30;;;8.43;;
21168;SDS011;10742;51.816;8.662;2023-05-10T11:17:24;14.88;;;7.75;;
21168;SDS011;10742;51.816;8.662;2023-05-10T11:20:28;20.52;;;8.65;;
21168;SDS011;10742;51.816;8.662;2023-05-10T11:26:50;15.27;;;8.00;;
21168;SDS011;10742;51.816;8.662;2023-05-10T11:29:53;17.42;;;8.75;;
21168;SDS011;10742;51.816;8.662;2023-05-10T11:32:55;20.00;;;9.00;;
21168;SDS011;10742;51.816;8.662;2023-05-10T11:35:58;17.65;;;8.40;;
21168;SDS011;10742;51.816;8.662;2023-05-10T11:39:00;20.23;;;9.15;;
21168;SDS011;10742;51.816;8.662;2023-05-10T11:42:02;18.63;;;9.40;;
21168;SDS011;10742;51.816;8.662;2023-05-10T11:45:05;19.95;;;9.25;;
21168;SDS011;10742;51.816;8.662;2023-05-10T11:48:08;18.10;;;9.00;;
21168;SDS011;10742;51.816;8.662;2023-05-10T11:51:11;20.40;;;8.55;;
21168;SDS011;10742;51.816;8.662;2023-05-10T11:54:13;18.15;;;8.25;;
21168;SDS011;10742;51.816;8.662;2023-05-10T11:57:15;17.42;;;8.13;;
21168;SDS011;10742;51.816;8.662;2023-05-10T12:00:19;17.48;;;8.02;;
21168;SDS011;10742;51.816;8.662;2023-05-10T12:03:22;18.48;;;8.55;;
21168;SDS011;10742;51.816;8.662;2023-05-10T12:06:32;23.00;;;10.23;;
21168;SDS011;10742;51.816;8.662;2023-05-10T12:09:43;21.80;;;10.75;;
21168;SDS011;10742;51.816;8.662;2023-05-10T12:12:47;20.60;;;9.25;;
21168;SDS011;10742;51.816;8.662;2023-05-10T12:15:49;14.00;;;7.13;;
21168;SDS011;10742;51.816;8.662;2023-05-10T12:18:56;10.25;;;5.18;;
21168;SDS011;10742;51.816;8.662;2023-05-10T12:21:59;7.78;;;4.43;;
21168;SDS011;10742;51.816;8.662;2023-05-10T12:25:02;9.40;;;5.00;;
21168;SDS011;10742;51.816;8.662;2023-05-10T12:28:05;7.93;;;4.80;;
21168;SDS011;10742;51.816;8.662;2023-05-10T12:31:09;7.18;;;4.35;;
21168;SDS011;10742;51.816;8.662;2023-05-10T12:34:11;5.97;;;3.85;;
21168;SDS011;10742;51.816;8.662;2023-05-10T12:37:27;7.35;;;4.10;;
21168;SDS011;10742;51.816;8.662;2023-05-10T12:40:30;8.63;;;4.68;;
21168;SDS011;10742;51.816;8.662;2023-05-10T12:43:32;8.00;;;4.65;;
21168;SDS011;10742;51.816;8.662;2023-05-10T12:46:35;8.70;;;4.45;;
21168;SDS011;10742;51.816;8.662;2023-05-10T12:49:38;12.88;;;5.57;;
21168;SDS011;10742;51.816;8.662;2023-05-10T12:52:40;12.13;;;5.38;;
21168;SDS011;10742;51.816;8.662;2023-05-10T12:55:43;11.57;;;4.90;;
21168;SDS011;10742;51.816;8.662;2023-05-10T12:58:45;9.73;;;5.38;;
21168;SDS011;10742;51.816;8.662;2023-05-10T13:01:49;9.68;;;5.15;;
21168;SDS011;10742;51.816;8.662;2023-05-10T13:04:52;9.10;;;5.25;;
21168;SDS011;10742;51.816;8.662;2023-05-10T13:07:54;11.63;;;5.95;;
21168;SDS011;10742;51.816;8.662;2023-05-10T13:10:57;13.63;;;6.00;;
21168;SDS011;10742;51.816;8.662;2023-05-10T13:13:59;15.00;;;6.82;;
21168;SDS011;10742;51.816;8.662;2023-05-10T13:17:02;17.67;;;6.40;;
21168;SDS011;10742;51.816;8.662;2023-05-10T13:20:04;12.68;;;6.15;;
21168;SDS011;10742;51.816;8.662;2023-05-10T13:23:07;13.15;;;6.30;;
21168;SDS011;10742;51.816;8.662;2023-05-10T13:26:09;11.70;;;5.50;;
21168;SDS011;10742;51.816;8.662;2023-05-10T13:29:11;9.32;;;4.65;;
21168;SDS011;10742;51.816;8.662;2023-05-10T13:32:14;8.15;;;3.83;;
21168;SDS011;10742;51.816;8.662;2023-05-10T13:35:16;4.80;;;2.80;;
21168;SDS011;10742;51.816;8.662;2023-05-10T13:38:19;5.53;;;2.65;;
21168;SDS011;10742;51.816;8.662;2023-05-10T13:41:22;6.20;;;2.75;;
21168;SDS011;10742;51.816;8.662;2023-05-10T13:44:24;5.57;;;2.90;;
21168;SDS011;10742;51.816;8.662;2023-05-10T13:47:27;9.75;;;4.18;;
21168;SDS011;10742;51.816;8.662;2023-05-10T13:50:29;9.52;;;4.68;;
21168;SDS011;10742;51.816;8.662;2023-05-10T13:53:32;15.10;;;5.75;;
21168;SDS011;10742;51.816;8.662;2023-05-10T13:56:35;14.98;;;6.68;;
21168;SDS011;10742;51.816;8.662;2023-05-10T13:59:37;16.65;;;7.75;;
21168;SDS011;10742;51.816;8.662;2023-05-10T14:02:39;15.55;;;8.18;;
21168;SDS011;10742;51.816;8.662;2023-05-10T14:05:42;19.98;;;9.02;;
21168;SDS011;10742;51.816;8.662;2023-05-10T14:08:44;18.90;;;8.25;;
21168;SDS011;10742;51.816;8.662;2023-05-10T14:11:47;21.50;;;9.02;;
21168;SDS011;10742;51.816;8.662;2023-05-10T14:14:49;20.33;;;8.75;;
21168;SDS011;10742;51.816;8.662;2023-05-10T14:17:52;17.50;;;8.18;;
21168;SDS011;10742;51.816;8.662;2023-05-10T14:20:54;20.42;;;8.68;;
21168;SDS011;10742;51.816;8.662;2023-05-10T14:23:57;17.25;;;7.65;;
21168;SDS011;10742;51.816;8.662;2023-05-10T14:26:59;17.48;;;8.32;;
21168;SDS011;10742;51.816;8.662;2023-05-10T14:30:02;18.20;;;7.93;;
21168;SDS011;10742;51.816;8.662;2023-05-10T14:33:04;19.30;;;8.90;;
21168;SDS011;10742;51.816;8.662;2023-05-10T14:36:07;21.90;;;9.53;;
21168;SDS011;10742;51.816;8.662;2023-05-10T14:39:10;19.67;;;8.60;;
21168;SDS011;10742;51.816;8.662;2023-05-10T14:42:14;19.33;;;8.63;;
21168;SDS011;10742;51.816;8.662;2023-05-10T14:45:16;16.23;;;7.93;;
21168;SDS011;10742;51.816;8.662;2023-05-10T14:48:19;19.57;;;8.77;;
21168;SDS011;10742;51.816;8.662;2023-05-10T14:51:22;15.30;;;6.83;;
21168;SDS011;10742;51.816;8.662;2023-05-10T14:54:25;14.60;;;7.30;;
21168;SDS011;10742;51.816;8.662;2023-05-10T14:57:27;21.77;;;10.17;;
21168;SDS011;10742;51.816;8.662;2023-05-10T15:00:31;33.30;;;14.93;;
21168;SDS011;10742;51.816;8.662;2023-05-10T15:03:33;24.23;;;12.97;;
21168;SDS011;10742;51.816;8.662;2023-05-10T15:06:36;33.63;;;14.97;;
21168;SDS011;10742;51.816;8.662;2023-05-10T15:09:38;39.77;;;15.07;;
21168;SDS011;10742;51.816;8.662;2023-05-10T15:12:42;62.23;;;21.67;;
21168;SDS011;10742;51.816;8.662;2023-05-10T15:15:44;162.97;;;59.93;;
21168;SDS011;10742;51.816;8.662;2023-05-10T15:18:46;19.43;;;10.93;;
21168;SDS011;10742;51.816;8.662;2023-05-10T15:21:49;46.03;;;20.23;;
21168;SDS011;10742;51.816;8.662;2023-05-10T15:24:52;54.23;;;23.37;;
21168;SDS011;10742;51.816;8.662;2023-05-10T15:27:54;262.87;;;78.93;;
21168;SDS011;10742;51.816;8.662;2023-05-10T15:30:56;70.87;;;28.47;;
21168;SDS011;10742;51.816;8.662;2023-05-10T15:33:59;397.07;;;131.17;;
21168;SDS011;10742;51.816;8.662;2023-05-10T15:37:01;208.40;;;59.83;;
21168;SDS011;10742;51.816;8.662;2023-05-10T15:40:04;174.30;;;58.47;;
21168;SDS011;10742;51.816;8.662;2023-05-10T15:43:07;160.87;;;53.43;;
21168;SDS011;10742;51.816;8.662;2023-05-10T15:46:09;242.43;;;80.13;;
21168;SDS011;10742;51.816;8.662;2023-05-10T15:49:12;848.53;;;243.83;;
21168;SDS011;10742;51.816;8.662;2023-05-10T15:52:14;870.80;;;256.90;;
21168;SDS011;10742;51.816;8.662;2023-05-10T15:55:17;928.93;;;277.37;;
21168;SDS011;10742;51.816;8.662;2023-05-10T15:58:25;820.07;;;234.90;;
21168;SDS011;10742;51.816;8.662;2023-05-10T16:01:27;423.77;;;136.03;;
21168;SDS011;10742;51.816;8.662;2023-05-10T16:04:31;767.07;;;229.73;;
21168;SDS011;10742;51.816;8.662;2023-05-10T16:07:34;985.90;;;269.40;;
21168;SDS011;10742;51.816;8.662;2023-05-10T16:10:36;1101.07;;;311.23;;
21168;SDS011;10742;51.816;8.662;2023-05-10T16:13:39;745.20;;;214.93;;
21168;SDS011;10742;51.816;8.662;2023-05-10T16:16:41;1030.50;;;304.27;;
21168;SDS011;10742;51.816;8.662;2023-05-10T16:19:44;1014.10;;;297.60;;
21168;SDS011;10742;51.816;8.662;2023-05-10T16:22:47;1726.63;;;410.67;;
21168;SDS011;10742;51.816;8.662;2023-05-10T16:25:49;1999.90;;;514.17;;
21168;SDS011;10742;51.816;8.662;2023-05-10T16:28:53;1898.23;;;456.57;;
21168;SDS011;10742;51.816;8.662;2023-05-10T16:31:55;1999.90;;;544.57;;
21168;SDS011;10742;51.816;8.662;2023-05-10T16:34:58;1999.90;;;491.93;;
21168;SDS011;10742;51.816;8.662;2023-05-10T16:38:01;1571.40;;;364.53;;
21168;SDS011;10742;51.816;8.662;2023-05-10T16:41:03;1970.20;;;466.93;;
21168;SDS011;10742;51.816;8.662;2023-05-10T16:44:06;1913.30;;;455.53;;
21168;SDS011;10742;51.816;8.662;2023-05-10T16:47:08;1726.63;;;409.40;;
21168;SDS011;10742;51.816;8.662;2023-05-10T16:50:10;1999.90;;;572.13;;
21168;SDS011;10742;51.816;8.662;2023-05-10T16:53:13;1999.90;;;553.20;;
21168;SDS011;10742;51.816;8.662;2023-05-10T16:56:16;1999.90;;;511.67;;
21168;SDS011;10742;51.816;8.662;2023-05-10T16:59:19;1947.30;;;468.73;;
21168;SDS011;10742;51.816;8.662;2023-05-10T17:02:22;1999.90;;;559.13;;
21168;SDS011;10742;51.816;8.662;2023-05-10T17:05:24;1999.90;;;580.67;;
21168;SDS011;10742;51.816;8.662;2023-05-10T17:08:27;1999.90;;;562.63;;
21168;SDS011;10742;51.816;8.662;2023-05-10T17:11:29;1999.90;;;525.10;;
21168;SDS011;10742;51.816;8.662;2023-05-10T17:14:32;1999.90;;;690.77;;
21168;SDS011;10742;51.816;8.662;2023-05-10T17:17:34;1999.90;;;738.23;;
21168;SDS011;10742;51.816;8.662;2023-05-10T17:20:36;1999.90;;;787.53;;
21168;SDS011;10742;51.816;8.662;2023-05-10T17:23:39;1999.90;;;762.33;;
21168;SDS011;10742;51.816;8.662;2023-05-10T17:26:41;1999.90;;;797.37;;
21168;SDS011;10742;51.816;8.662;2023-05-10T17:29:43;1999.90;;;972.07;;
21168;SDS011;10742;51.816;8.662;2023-05-10T17:32:46;1999.90;;;999.90;;
21168;SDS011;10742;51.816;8.662;2023-05-10T17:35:48;1999.90;;;999.90;;
21168;SDS011;10742;51.816;8.662;2023-05-10T17:38:51;1999.90;;;999.90;;
21168;SDS011;10742;51.816;8.662;2023-05-10T17:41:53;1999.90;;;999.90;;
21168;SDS011;10742;51.816;8.662;2023-05-10T17:44:55;1999.90;;;999.90;;
21168;SDS011;10742;51.816;8.662;2023-05-10T17:47:57;1999.90;;;999.90;;